sensor_id;sensor_type;location;lat;lon;timestamp;temperature;humidity
61374;DHT22;47242;48.158;-1.586;2024-02-26T05:30:45;9.10;91.60
61374;DHT22;47242;48.158;-1.586;2024-02-26T05:33:10;9.10;91.60
61374;DHT22;47242;48.158;-1.586;2024-02-26T05:35:37;9.10;91.90
61374;DHT22;47242;48.158;-1.586;2024-02-26T05:38:02;9.10;91.70
61374;DHT22;47242;48.158;-1.586;2024-02-26T05:40:28;9.10;91.60
61374;DHT22;47242;48.158;-1.586;2024-02-26T05:42:55;9.00;91.70
61374;DHT22;47242;48.158;-1.586;2024-02-26T05:45:21;9.10;91.90
61374;DHT22;47242;48.158;-1.586;2024-02-26T05:47:47;9.00;91.70
61374;DHT22;47242;48.158;-1.586;2024-02-26T05:50:13;9.00;91.90
61374;DHT22;47242;48.158;-1.586;2024-02-26T05:52:40;9.00;91.70
61374;DHT22;47242;48.158;-1.586;2024-02-26T05:55:06;9.00;91.80
61374;DHT22;47242;48.158;-1.586;2024-02-26T05:57:35;9.00;91.60
61374;DHT22;47242;48.158;-1.586;2024-02-26T06:00:01;8.90;91.10
61374;DHT22;47242;48.158;-1.586;2024-02-26T06:02:32;8.90;91.30
61374;DHT22;47242;48.158;-1.586;2024-02-26T06:04:58;8.80;91.20
61374;DHT22;47242;48.158;-1.586;2024-02-26T06:07:24;8.80;91.20
61374;DHT22;47242;48.158;-1.586;2024-02-26T06:09:50;8.80;91.10
61374;DHT22;47242;48.158;-1.586;2024-02-26T06:12:16;8.80;90.90
61374;DHT22;47242;48.158;-1.586;2024-02-26T06:14:44;8.80;91.30
61374;DHT22;47242;48.158;-1.586;2024-02-26T06:17:10;8.80;91.00
61374;DHT22;47242;48.158;-1.586;2024-02-26T06:19:35;8.70;91.00
61374;DHT22;47242;48.158;-1.586;2024-02-26T06:22:01;8.70;91.10
61374;DHT22;47242;48.158;-1.586;2024-02-26T06:24:26;8.70;91.20
61374;DHT22;47242;48.158;-1.586;2024-02-26T06:26:52;8.70;91.40
61374;DHT22;47242;48.158;-1.586;2024-02-26T06:29:18;8.70;91.40
61374;DHT22;47242;48.158;-1.586;2024-02-26T06:31:43;8.70;91.20
61374;DHT22;47242;48.158;-1.586;2024-02-26T06:34:09;8.60;90.80
61374;DHT22;47242;48.158;-1.586;2024-02-26T06:36:34;8.60;91.20
61374;DHT22;47242;48.158;-1.586;2024-02-26T06:39:00;8.60;91.10
61374;DHT22;47242;48.158;-1.586;2024-02-26T06:41:26;8.60;91.50
61374;DHT22;47242;48.158;-1.586;2024-02-26T06:43:56;8.60;91.60
61374;DHT22;47242;48.158;-1.586;2024-02-26T06:46:22;8.60;91.60
61374;DHT22;47242;48.158;-1.586;2024-02-26T06:48:48;8.60;91.00
61374;DHT22;47242;48.158;-1.586;2024-02-26T06:51:14;8.60;91.30
61374;DHT22;47242;48.158;-1.586;2024-02-26T06:53:40;8.50;91.30
61374;DHT22;47242;48.158;-1.586;2024-02-26T06:56:06;8.50;91.00
61374;DHT22;47242;48.158;-1.586;2024-02-26T06:58:31;8.50;91.60
61374;DHT22;47242;48.158;-1.586;2024-02-26T07:00:57;8.50;91.60
61374;DHT22;47242;48.158;-1.586;2024-02-26T07:03:22;8.50;91.40
61374;DHT22;47242;48.158;-1.586;2024-02-26T07:05:49;8.50;91.40
61374;DHT22;47242;48.158;-1.586;2024-02-26T07:08:15;8.50;91.10
61374;DHT22;47242;48.158;-1.586;2024-02-26T07:10:41;8.50;91.20
61374;DHT22;47242;48.158;-1.586;2024-02-26T07:13:07;8.40;91.20
61374;DHT22;47242;48.158;-1.586;2024-02-26T07:15:33;8.50;91.70
61374;DHT22;47242;48.158;-1.586;2024-02-26T07:17:58;8.50;91.40
61374;DHT22;47242;48.158;-1.586;2024-02-26T07:20:31;8.50;91.20
61374;DHT22;47242;48.158;-1.586;2024-02-26T07:22:57;8.60;91.40
61374;DHT22;47242;48.158;-1.586;2024-02-26T07:25:23;8.50;91.20
61374;DHT22;47242;48.158;-1.586;2024-02-26T07:27:50;8.60;90.80
61374;DHT22;47242;48.158;-1.586;2024-02-26T07:30:15;8.40;90.20
61374;DHT22;47242;48.158;-1.586;2024-02-26T07:32:42;8.40;90.80
61374;DHT22;47242;48.158;-1.586;2024-02-26T07:35:08;8.40;90.90
61374;DHT22;47242;48.158;-1.586;2024-02-26T07:37:34;8.40;91.00
61374;DHT22;47242;48.158;-1.586;2024-02-26T07:40:00;8.40;90.20
61374;DHT22;47242;48.158;-1.586;2024-02-26T07:42:26;8.30;90.00
61374;DHT22;47242;48.158;-1.586;2024-02-26T07:44:51;8.40;90.30
61374;DHT22;47242;48.158;-1.586;2024-02-26T07:47:18;8.50;90.10
61374;DHT22;47242;48.158;-1.586;2024-02-26T07:49:44;8.40;89.50
61374;DHT22;47242;48.158;-1.586;2024-02-26T07:52:10;8.40;89.50
61374;DHT22;47242;48.158;-1.586;2024-02-26T07:54:36;8.40;89.20
61374;DHT22;47242;48.158;-1.586;2024-02-26T07:57:01;8.40;89.40
61374;DHT22;47242;48.158;-1.586;2024-02-26T07:59:31;8.40;89.50
61374;DHT22;47242;48.158;-1.586;2024-02-26T08:01:56;8.40;89.20
61374;DHT22;47242;48.158;-1.586;2024-02-26T08:04:22;8.40;89.30
61374;DHT22;47242;48.158;-1.586;2024-02-26T08:06:48;8.40;89.20
61374;DHT22;47242;48.158;-1.586;2024-02-26T08:09:13;8.40;89.30
61374;DHT22;47242;48.158;-1.586;2024-02-26T08:11:39;8.50;89.30
61374;DHT22;47242;48.158;-1.586;2024-02-26T08:14:05;8.40;89.00
61374;DHT22;47242;48.158;-1.586;2024-02-26T08:16:30;8.40;89.20
61374;DHT22;47242;48.158;-1.586;2024-02-26T08:18:56;8.30;88.30
61374;DHT22;47242;48.158;-1.586;2024-02-26T08:21:21;8.30;88.70
61374;DHT22;47242;48.158;-1.586;2024-02-26T08:23:47;8.20;88.50
61374;DHT22;47242;48.158;-1.586;2024-02-26T08:26:12;8.30;88.90
61374;DHT22;47242;48.158;-1.586;2024-02-26T08:28:38;8.30;88.40
61374;DHT22;47242;48.158;-1.586;2024-02-26T08:31:04;8.20;88.10
61374;DHT22;47242;48.158;-1.586;2024-02-26T08:33:30;8.20;88.40
61374;DHT22;47242;48.158;-1.586;2024-02-26T08:35:56;8.20;88.80
61374;DHT22;47242;48.158;-1.586;2024-02-26T08:38:22;8.20;88.30
61374;DHT22;47242;48.158;-1.586;2024-02-26T08:40:48;8.30;88.40
61374;DHT22;47242;48.158;-1.586;2024-02-26T08:43:14;8.40;88.20
61374;DHT22;47242;48.158;-1.586;2024-02-26T08:45:39;8.40;88.20
61374;DHT22;47242;48.158;-1.586;2024-02-26T08:48:05;8.40;87.60
61374;DHT22;47242;48.158;-1.586;2024-02-26T08:50:31;8.30;87.70
61374;DHT22;47242;48.158;-1.586;2024-02-26T08:52:56;8.30;87.20
61374;DHT22;47242;48.158;-1.586;2024-02-26T08:55:22;8.30;87.90
61374;DHT22;47242;48.158;-1.586;2024-02-26T08:57:48;8.20;87.70
61374;DHT22;47242;48.158;-1.586;2024-02-26T09:00:14;8.30;88.00
61374;DHT22;47242;48.158;-1.586;2024-02-26T09:02:41;8.30;87.90
61374;DHT22;47242;48.158;-1.586;2024-02-26T09:05:09;8.20;87.30
61374;DHT22;47242;48.158;-1.586;2024-02-26T09:07:35;8.20;87.30
61374;DHT22;47242;48.158;-1.586;2024-02-26T09:10:02;8.20;87.70
61374;DHT22;47242;48.158;-1.586;2024-02-26T09:12:27;8.20;87.40
61374;DHT22;47242;48.158;-1.586;2024-02-26T09:14:54;8.30;87.30
61374;DHT22;47242;48.158;-1.586;2024-02-26T09:17:21;8.30;86.90
61374;DHT22;47242;48.158;-1.586;2024-02-26T09:19:47;8.30;86.20
61374;DHT22;47242;48.158;-1.586;2024-02-26T09:22:13;8.20;85.90
61374;DHT22;47242;48.158;-1.586;2024-02-26T09:24:39;8.30;86.60
61374;DHT22;47242;48.158;-1.586;2024-02-26T09:27:04;8.30;86.20
61374;DHT22;47242;48.158;-1.586;2024-02-26T09:29:30;8.30;85.80
61374;DHT22;47242;48.158;-1.586;2024-02-26T09:31:56;8.30;85.10
61374;DHT22;47242;48.158;-1.586;2024-02-26T09:34:21;8.30;85.90
61374;DHT22;47242;48.158;-1.586;2024-02-26T09:36:47;8.20;85.30
61374;DHT22;47242;48.158;-1.586;2024-02-26T09:39:12;8.30;85.80
61374;DHT22;47242;48.158;-1.586;2024-02-26T09:41:40;8.30;85.50
61374;DHT22;47242;48.158;-1.586;2024-02-26T09:44:06;8.20;85.90
61374;DHT22;47242;48.158;-1.586;2024-02-26T09:46:31;8.30;86.10
61374;DHT22;47242;48.158;-1.586;2024-02-26T09:48:57;8.20;85.70
61374;DHT22;47242;48.158;-1.586;2024-02-26T09:51:23;8.20;84.80
61374;DHT22;47242;48.158;-1.586;2024-02-26T09:53:54;8.30;85.30
61374;DHT22;47242;48.158;-1.586;2024-02-26T09:56:22;8.30;84.70
61374;DHT22;47242;48.158;-1.586;2024-02-26T09:58:48;8.30;84.80
61374;DHT22;47242;48.158;-1.586;2024-02-26T10:01:20;8.40;84.60
61374;DHT22;47242;48.158;-1.586;2024-02-26T10:03:52;8.40;84.30
61374;DHT22;47242;48.158;-1.586;2024-02-26T10:06:18;8.40;84.20
61374;DHT22;47242;48.158;-1.586;2024-02-26T10:08:43;8.40;83.70
61374;DHT22;47242;48.158;-1.586;2024-02-26T10:11:10;8.50;82.60
61374;DHT22;47242;48.158;-1.586;2024-02-26T10:13:36;8.50;83.30
61374;DHT22;47242;48.158;-1.586;2024-02-26T10:16:02;8.60;82.20
61374;DHT22;47242;48.158;-1.586;2024-02-26T10:18:51;8.80;83.50
61374;DHT22;47242;48.158;-1.586;2024-02-26T10:21:17;8.80;81.80
61374;DHT22;47242;48.158;-1.586;2024-02-26T10:23:46;8.80;82.40
61374;DHT22;47242;48.158;-1.586;2024-02-26T10:26:13;8.80;82.60
61374;DHT22;47242;48.158;-1.586;2024-02-26T10:28:39;8.70;81.80
61374;DHT22;47242;48.158;-1.586;2024-02-26T10:31:06;8.70;82.40
61374;DHT22;47242;48.158;-1.586;2024-02-26T10:33:35;8.70;82.00
61374;DHT22;47242;48.158;-1.586;2024-02-26T10:36:05;8.70;81.80
61374;DHT22;47242;48.158;-1.586;2024-02-26T10:38:32;8.70;81.30
61374;DHT22;47242;48.158;-1.586;2024-02-26T10:40:58;8.90;81.20
61374;DHT22;47242;48.158;-1.586;2024-02-26T10:43:25;9.00;80.80
61374;DHT22;47242;48.158;-1.586;2024-02-26T10:45:51;9.00;80.40
61374;DHT22;47242;48.158;-1.586;2024-02-26T10:48:17;9.10;80.80
61374;DHT22;47242;48.158;-1.586;2024-02-26T10:50:43;9.20;80.30
61374;DHT22;47242;48.158;-1.586;2024-02-26T10:53:17;9.20;79.80
61374;DHT22;47242;48.158;-1.586;2024-02-26T10:55:58;9.20;80.20
61374;DHT22;47242;48.158;-1.586;2024-02-26T10:58:25;9.20;78.70
61374;DHT22;47242;48.158;-1.586;2024-02-26T11:00:52;9.40;78.60
61374;DHT22;47242;48.158;-1.586;2024-02-26T11:03:18;9.30;78.40
61374;DHT22;47242;48.158;-1.586;2024-02-26T11:05:50;9.40;78.40
61374;DHT22;47242;48.158;-1.586;2024-02-26T11:08:18;9.30;79.00
61374;DHT22;47242;48.158;-1.586;2024-02-26T11:10:47;9.20;79.10
61374;DHT22;47242;48.158;-1.586;2024-02-26T11:13:15;9.20;79.10
61374;DHT22;47242;48.158;-1.586;2024-02-26T11:15:46;9.20;79.80
61374;DHT22;47242;48.158;-1.586;2024-02-26T11:18:14;9.20;80.00
61374;DHT22;47242;48.158;-1.586;2024-02-26T11:20:40;9.00;80.80
61374;DHT22;47242;48.158;-1.586;2024-02-26T11:23:07;9.10;81.20
61374;DHT22;47242;48.158;-1.586;2024-02-26T11:25:33;9.00;81.40
61374;DHT22;47242;48.158;-1.586;2024-02-26T11:28:02;8.90;81.90
61374;DHT22;47242;48.158;-1.586;2024-02-26T11:30:31;8.80;82.70
61374;DHT22;47242;48.158;-1.586;2024-02-26T11:32:58;8.60;83.30
61374;DHT22;47242;48.158;-1.586;2024-02-26T11:35:24;8.50;83.90
61374;DHT22;47242;48.158;-1.586;2024-02-26T11:37:57;8.50;83.50
61374;DHT22;47242;48.158;-1.586;2024-02-26T11:40:26;8.50;84.40
61374;DHT22;47242;48.158;-1.586;2024-02-26T11:42:52;8.60;84.80
61374;DHT22;47242;48.158;-1.586;2024-02-26T11:48:16;8.40;86.60
61374;DHT22;47242;48.158;-1.586;2024-02-26T11:50:47;8.20;85.80
61374;DHT22;47242;48.158;-1.586;2024-02-26T11:53:20;8.10;85.90
61374;DHT22;47242;48.158;-1.586;2024-02-26T11:55:45;8.00;85.70
61374;DHT22;47242;48.158;-1.586;2024-02-26T11:58:11;8.00;85.70
61374;DHT22;47242;48.158;-1.586;2024-02-26T12:00:36;8.10;85.70
61374;DHT22;47242;48.158;-1.586;2024-02-26T12:03:05;8.10;85.80
61374;DHT22;47242;48.158;-1.586;2024-02-26T12:05:34;8.00;85.50
61374;DHT22;47242;48.158;-1.586;2024-02-26T12:08:06;8.20;85.90
61374;DHT22;47242;48.158;-1.586;2024-02-26T12:10:37;8.20;85.50
61374;DHT22;47242;48.158;-1.586;2024-02-26T12:13:14;8.20;85.40
61374;DHT22;47242;48.158;-1.586;2024-02-26T12:15:41;8.20;85.20
61374;DHT22;47242;48.158;-1.586;2024-02-26T12:18:08;8.30;85.50
61374;DHT22;47242;48.158;-1.586;2024-02-26T12:20:35;8.20;84.80
61374;DHT22;47242;48.158;-1.586;2024-02-26T12:23:04;8.20;84.40
61374;DHT22;47242;48.158;-1.586;2024-02-26T12:25:31;8.30;84.60
61374;DHT22;47242;48.158;-1.586;2024-02-26T12:27:57;8.30;84.70
61374;DHT22;47242;48.158;-1.586;2024-02-26T12:30:23;8.40;85.20
61374;DHT22;47242;48.158;-1.586;2024-02-26T12:32:52;8.40;86.30
61374;DHT22;47242;48.158;-1.586;2024-02-26T12:35:18;8.50;86.50
61374;DHT22;47242;48.158;-1.586;2024-02-26T12:37:44;8.50;86.50
61374;DHT22;47242;48.158;-1.586;2024-02-26T12:40:11;8.50;86.30
61374;DHT22;47242;48.158;-1.586;2024-02-26T12:42:38;8.60;85.70
61374;DHT22;47242;48.158;-1.586;2024-02-26T12:45:08;8.60;85.50
61374;DHT22;47242;48.158;-1.586;2024-02-26T12:47:41;8.50;84.90
61374;DHT22;47242;48.158;-1.586;2024-02-26T12:50:07;8.50;85.30
61374;DHT22;47242;48.158;-1.586;2024-02-26T12:52:34;8.40;85.50
61374;DHT22;47242;48.158;-1.586;2024-02-26T12:55:03;8.30;85.20
61374;DHT22;47242;48.158;-1.586;2024-02-26T12:57:33;8.30;85.70
61374;DHT22;47242;48.158;-1.586;2024-02-26T12:59:59;8.20;85.50
61374;DHT22;47242;48.158;-1.586;2024-02-26T13:02:26;8.30;86.10
61374;DHT22;47242;48.158;-1.586;2024-02-26T13:04:53;8.30;85.80
61374;DHT22;47242;48.158;-1.586;2024-02-26T13:07:20;8.30;86.10
61374;DHT22;47242;48.158;-1.586;2024-02-26T13:09:46;8.40;85.40
61374;DHT22;47242;48.158;-1.586;2024-02-26T13:12:12;8.50;84.60
61374;DHT22;47242;48.158;-1.586;2024-02-26T13:14:38;8.60;84.60
61374;DHT22;47242;48.158;-1.586;2024-02-26T13:17:04;8.60;83.80
61374;DHT22;47242;48.158;-1.586;2024-02-26T13:19:29;8.60;83.60
61374;DHT22;47242;48.158;-1.586;2024-02-26T13:21:55;8.60;83.90
61374;DHT22;47242;48.158;-1.586;2024-02-26T13:24:21;8.60;84.00
61374;DHT22;47242;48.158;-1.586;2024-02-26T13:26:54;8.50;84.00
61374;DHT22;47242;48.158;-1.586;2024-02-26T13:29:20;8.50;84.10
61374;DHT22;47242;48.158;-1.586;2024-02-26T13:31:46;8.40;84.20
61374;DHT22;47242;48.158;-1.586;2024-02-26T13:34:28;8.30;83.60
61374;DHT22;47242;48.158;-1.586;2024-02-26T13:36:56;8.30;84.20
61374;DHT22;47242;48.158;-1.586;2024-02-26T13:39:23;8.20;83.50
61374;DHT22;47242;48.158;-1.586;2024-02-26T13:41:49;8.20;83.80
61374;DHT22;47242;48.158;-1.586;2024-02-26T13:44:15;8.30;84.10
61374;DHT22;47242;48.158;-1.586;2024-02-26T13:46:40;8.50;83.60
61374;DHT22;47242;48.158;-1.586;2024-02-26T13:49:08;8.50;82.20
61374;DHT22;47242;48.158;-1.586;2024-02-26T13:51:34;8.40;81.20
61374;DHT22;47242;48.158;-1.586;2024-02-26T13:54:01;8.50;82.00
61374;DHT22;47242;48.158;-1.586;2024-02-26T13:56:27;8.50;81.80
61374;DHT22;47242;48.158;-1.586;2024-02-26T13:58:52;8.70;81.80
61374;DHT22;47242;48.158;-1.586;2024-02-26T14:01:18;8.60;81.90
61374;DHT22;47242;48.158;-1.586;2024-02-26T14:03:44;8.50;81.90
61374;DHT22;47242;48.158;-1.586;2024-02-26T14:06:10;8.50;82.10
61374;DHT22;47242;48.158;-1.586;2024-02-26T14:08:36;8.50;82.50
61374;DHT22;47242;48.158;-1.586;2024-02-26T14:11:02;8.50;81.90
61374;DHT22;47242;48.158;-1.586;2024-02-26T14:13:28;8.40;81.90
61374;DHT22;47242;48.158;-1.586;2024-02-26T14:15:54;8.30;81.90
61374;DHT22;47242;48.158;-1.586;2024-02-26T14:18:19;8.20;82.10
61374;DHT22;47242;48.158;-1.586;2024-02-26T14:20:45;8.30;82.30
61374;DHT22;47242;48.158;-1.586;2024-02-26T14:23:10;8.20;81.80
61374;DHT22;47242;48.158;-1.586;2024-02-26T14:25:36;8.20;81.50
61374;DHT22;47242;48.158;-1.586;2024-02-26T14:28:02;8.30;82.20
61374;DHT22;47242;48.158;-1.586;2024-02-26T14:30:28;8.30;81.80
61374;DHT22;47242;48.158;-1.586;2024-02-26T14:32:54;8.40;81.50
61374;DHT22;47242;48.158;-1.586;2024-02-26T14:35:20;8.20;81.40
61374;DHT22;47242;48.158;-1.586;2024-02-26T14:37:45;8.30;82.00
61374;DHT22;47242;48.158;-1.586;2024-02-26T14:40:13;8.30;82.20
61374;DHT22;47242;48.158;-1.586;2024-02-26T14:42:39;8.30;81.90
61374;DHT22;47242;48.158;-1.586;2024-02-26T14:45:05;8.30;81.70
61374;DHT22;47242;48.158;-1.586;2024-02-26T14:47:34;8.20;81.00
61374;DHT22;47242;48.158;-1.586;2024-02-26T14:49:59;8.30;81.80
61374;DHT22;47242;48.158;-1.586;2024-02-26T14:52:25;8.20;81.70
61374;DHT22;47242;48.158;-1.586;2024-02-26T14:54:51;8.20;81.90
61374;DHT22;47242;48.158;-1.586;2024-02-26T14:57:16;8.20;81.90
61374;DHT22;47242;48.158;-1.586;2024-02-26T14:59:42;8.10;81.60
61374;DHT22;47242;48.158;-1.586;2024-02-26T15:02:09;8.20;81.40
61374;DHT22;47242;48.158;-1.586;2024-02-26T15:04:38;8.30;81.70
61374;DHT22;47242;48.158;-1.586;2024-02-26T15:07:04;8.30;81.80
61374;DHT22;47242;48.158;-1.586;2024-02-26T15:09:30;8.20;81.60
61374;DHT22;47242;48.158;-1.586;2024-02-26T15:11:55;8.10;81.30
61374;DHT22;47242;48.158;-1.586;2024-02-26T15:14:23;8.20;81.80
61374;DHT22;47242;48.158;-1.586;2024-02-26T15:16:48;8.20;81.00
61374;DHT22;47242;48.158;-1.586;2024-02-26T15:19:14;8.10;80.60
61374;DHT22;47242;48.158;-1.586;2024-02-26T15:21:44;8.20;80.40
61374;DHT22;47242;48.158;-1.586;2024-02-26T15:24:10;8.20;80.00
61374;DHT22;47242;48.158;-1.586;2024-02-26T15:26:41;8.20;80.10
61374;DHT22;47242;48.158;-1.586;2024-02-26T15:29:07;8.20;80.30
61374;DHT22;47242;48.158;-1.586;2024-02-26T15:31:37;8.20;80.30
61374;DHT22;47242;48.158;-1.586;2024-02-26T15:34:03;8.20;80.20
61374;DHT22;47242;48.158;-1.586;2024-02-26T15:36:29;8.00;79.90
61374;DHT22;47242;48.158;-1.586;2024-02-26T15:38:55;8.10;80.30
61374;DHT22;47242;48.158;-1.586;2024-02-26T15:41:20;8.10;79.90
61374;DHT22;47242;48.158;-1.586;2024-02-26T15:43:46;8.00;79.80
61374;DHT22;47242;48.158;-1.586;2024-02-26T15:46:11;8.10;80.50
61374;DHT22;47242;48.158;-1.586;2024-02-26T15:48:37;8.10;80.20
61374;DHT22;47242;48.158;-1.586;2024-02-26T15:51:03;8.20;80.20
61374;DHT22;47242;48.158;-1.586;2024-02-26T15:53:29;8.10;80.00
61374;DHT22;47242;48.158;-1.586;2024-02-26T15:55:55;8.10;80.30
61374;DHT22;47242;48.158;-1.586;2024-02-26T15:58:20;8.00;79.70
61374;DHT22;47242;48.158;-1.586;2024-02-26T16:00:46;7.90;79.80
61374;DHT22;47242;48.158;-1.586;2024-02-26T16:03:12;8.00;80.40
61374;DHT22;47242;48.158;-1.586;2024-02-26T16:05:38;8.10;79.70
61374;DHT22;47242;48.158;-1.586;2024-02-26T16:08:17;8.10;79.60
61374;DHT22;47242;48.158;-1.586;2024-02-26T16:10:46;8.10;78.90
61374;DHT22;47242;48.158;-1.586;2024-02-26T16:13:12;8.20;79.10
61374;DHT22;47242;48.158;-1.586;2024-02-26T16:15:39;8.10;79.20
61374;DHT22;47242;48.158;-1.586;2024-02-26T16:18:08;8.10;79.00
61374;DHT22;47242;48.158;-1.586;2024-02-26T16:20:33;8.00;78.90
61374;DHT22;47242;48.158;-1.586;2024-02-26T16:23:00;8.00;79.10
61374;DHT22;47242;48.158;-1.586;2024-02-26T16:25:30;7.80;79.00
61374;DHT22;47242;48.158;-1.586;2024-02-26T16:27:56;7.90;79.30
61374;DHT22;47242;48.158;-1.586;2024-02-26T16:30:21;8.00;79.70
61374;DHT22;47242;48.158;-1.586;2024-02-26T16:32:47;7.90;79.30
61374;DHT22;47242;48.158;-1.586;2024-02-26T16:35:13;8.00;79.70
61374;DHT22;47242;48.158;-1.586;2024-02-26T16:37:39;8.00;79.50
61374;DHT22;47242;48.158;-1.586;2024-02-26T16:40:05;8.00;79.30
61374;DHT22;47242;48.158;-1.586;2024-02-26T16:42:34;8.00;78.60
61374;DHT22;47242;48.158;-1.586;2024-02-26T16:45:00;7.90;78.70
61374;DHT22;47242;48.158;-1.586;2024-02-26T16:47:29;8.00;78.70
61374;DHT22;47242;48.158;-1.586;2024-02-26T16:49:55;8.00;78.50
61374;DHT22;47242;48.158;-1.586;2024-02-26T16:52:21;8.00;78.40
61374;DHT22;47242;48.158;-1.586;2024-02-26T16:54:48;7.90;78.20
61374;DHT22;47242;48.158;-1.586;2024-02-26T16:57:14;7.90;78.30
61374;DHT22;47242;48.158;-1.586;2024-02-26T16:59:40;7.80;78.40
61374;DHT22;47242;48.158;-1.586;2024-02-26T17:02:06;7.90;78.30
61374;DHT22;47242;48.158;-1.586;2024-02-26T17:04:33;7.90;78.50
61374;DHT22;47242;48.158;-1.586;2024-02-26T17:06:59;7.90;78.00
61374;DHT22;47242;48.158;-1.586;2024-02-26T17:09:25;7.90;78.10
61374;DHT22;47242;48.158;-1.586;2024-02-26T17:11:51;7.80;77.50
61374;DHT22;47242;48.158;-1.586;2024-02-26T17:14:18;7.80;77.10
61374;DHT22;47242;48.158;-1.586;2024-02-26T17:16:44;7.70;77.40
61374;DHT22;47242;48.158;-1.586;2024-02-26T17:19:10;7.80;77.70
61374;DHT22;47242;48.158;-1.586;2024-02-26T17:21:35;7.80;77.40
61374;DHT22;47242;48.158;-1.586;2024-02-26T17:24:01;7.80;77.50
61374;DHT22;47242;48.158;-1.586;2024-02-26T17:26:27;7.80;77.20
61374;DHT22;47242;48.158;-1.586;2024-02-26T17:28:53;7.70;77.20
61374;DHT22;47242;48.158;-1.586;2024-02-26T17:31:19;7.70;77.10
61374;DHT22;47242;48.158;-1.586;2024-02-26T17:33:46;7.80;77.40
61374;DHT22;47242;48.158;-1.586;2024-02-26T17:36:12;7.80;77.20
61374;DHT22;47242;48.158;-1.586;2024-02-26T17:38:38;7.80;77.30
61374;DHT22;47242;48.158;-1.586;2024-02-26T17:41:07;7.70;76.80
61374;DHT22;47242;48.158;-1.586;2024-02-26T17:43:33;7.70;77.70
61374;DHT22;47242;48.158;-1.586;2024-02-26T17:45:59;7.70;77.80
61374;DHT22;47242;48.158;-1.586;2024-02-26T17:48:24;7.60;77.90
61374;DHT22;47242;48.158;-1.586;2024-02-26T17:50:50;7.60;78.10
61374;DHT22;47242;48.158;-1.586;2024-02-26T17:53:16;7.60;77.90
61374;DHT22;47242;48.158;-1.586;2024-02-26T17:55:43;7.70;78.20
61374;DHT22;47242;48.158;-1.586;2024-02-26T17:58:09;7.70;78.10
61374;DHT22;47242;48.158;-1.586;2024-02-26T18:00:34;7.60;78.00
61374;DHT22;47242;48.158;-1.586;2024-02-26T18:03:01;7.50;77.70
61374;DHT22;47242;48.158;-1.586;2024-02-26T18:05:27;7.60;77.50
61374;DHT22;47242;48.158;-1.586;2024-02-26T18:07:52;7.50;77.50
61374;DHT22;47242;48.158;-1.586;2024-02-26T18:10:18;7.60;77.50
61374;DHT22;47242;48.158;-1.586;2024-02-26T18:12:49;7.60;77.40
61374;DHT22;47242;48.158;-1.586;2024-02-26T18:15:14;7.50;77.50
61374;DHT22;47242;48.158;-1.586;2024-02-26T18:17:40;7.50;77.60
61374;DHT22;47242;48.158;-1.586;2024-02-26T18:20:10;7.50;77.10
61374;DHT22;47242;48.158;-1.586;2024-02-26T18:22:36;7.60;77.40
61374;DHT22;47242;48.158;-1.586;2024-02-26T18:25:02;7.60;77.50
61374;DHT22;47242;48.158;-1.586;2024-02-26T18:27:28;7.60;77.70
61374;DHT22;47242;48.158;-1.586;2024-02-26T18:29:55;7.60;77.60
61374;DHT22;47242;48.158;-1.586;2024-02-26T18:32:21;7.40;77.40
61374;DHT22;47242;48.158;-1.586;2024-02-26T18:34:46;7.50;77.90
61374;DHT22;47242;48.158;-1.586;2024-02-26T18:37:12;7.50;77.80
61374;DHT22;47242;48.158;-1.586;2024-02-26T18:39:40;7.50;77.90
61374;DHT22;47242;48.158;-1.586;2024-02-26T18:42:05;7.50;77.30
61374;DHT22;47242;48.158;-1.586;2024-02-26T18:44:32;7.60;77.10
61374;DHT22;47242;48.158;-1.586;2024-02-26T18:46:59;7.60;76.30
61374;DHT22;47242;48.158;-1.586;2024-02-26T18:49:25;7.50;75.80
61374;DHT22;47242;48.158;-1.586;2024-02-26T18:51:51;7.50;75.80
61374;DHT22;47242;48.158;-1.586;2024-02-26T18:54:16;7.50;75.00
61374;DHT22;47242;48.158;-1.586;2024-02-26T18:56:42;7.50;74.50
61374;DHT22;47242;48.158;-1.586;2024-02-26T18:59:08;7.50;74.00
61374;DHT22;47242;48.158;-1.586;2024-02-26T19:01:34;7.60;74.50
61374;DHT22;47242;48.158;-1.586;2024-02-26T19:04:01;7.60;75.00
61374;DHT22;47242;48.158;-1.586;2024-02-26T19:06:27;7.60;75.00
61374;DHT22;47242;48.158;-1.586;2024-02-26T19:08:53;7.70;75.40
61374;DHT22;47242;48.158;-1.586;2024-02-26T19:11:18;7.60;75.40
61374;DHT22;47242;48.158;-1.586;2024-02-26T19:13:46;7.60;75.80
61374;DHT22;47242;48.158;-1.586;2024-02-26T19:16:12;7.70;76.00
61374;DHT22;47242;48.158;-1.586;2024-02-26T19:18:38;7.60;76.20
61374;DHT22;47242;48.158;-1.586;2024-02-26T19:21:04;7.70;76.00
61374;DHT22;47242;48.158;-1.586;2024-02-26T19:23:30;7.60;76.10
61374;DHT22;47242;48.158;-1.586;2024-02-26T19:25:56;7.60;75.40
61374;DHT22;47242;48.158;-1.586;2024-02-26T19:28:24;7.50;74.60
61374;DHT22;47242;48.158;-1.586;2024-02-26T19:30:50;7.60;74.20
61374;DHT22;47242;48.158;-1.586;2024-02-26T19:33:15;7.60;73.50
61374;DHT22;47242;48.158;-1.586;2024-02-26T19:35:43;7.60;72.70
61374;DHT22;47242;48.158;-1.586;2024-02-26T19:38:09;7.60;72.40
61374;DHT22;47242;48.158;-1.586;2024-02-26T19:40:35;7.70;72.70
61374;DHT22;47242;48.158;-1.586;2024-02-26T19:43:00;7.60;72.00
61374;DHT22;47242;48.158;-1.586;2024-02-26T19:45:26;7.70;71.90
61374;DHT22;47242;48.158;-1.586;2024-02-26T19:47:52;7.70;71.80
61374;DHT22;47242;48.158;-1.586;2024-02-26T19:50:18;7.70;71.70
61374;DHT22;47242;48.158;-1.586;2024-02-26T19:52:44;7.70;72.20
61374;DHT22;47242;48.158;-1.586;2024-02-26T19:55:13;7.70;71.80
61374;DHT22;47242;48.158;-1.586;2024-02-26T19:57:39;7.70;71.90
61374;DHT22;47242;48.158;-1.586;2024-02-26T20:00:05;7.70;71.90
61374;DHT22;47242;48.158;-1.586;2024-02-26T20:02:31;7.70;72.30
61374;DHT22;47242;48.158;-1.586;2024-02-26T20:04:57;7.70;71.70
61374;DHT22;47242;48.158;-1.586;2024-02-26T20:07:22;7.70;71.70
61374;DHT22;47242;48.158;-1.586;2024-02-26T20:09:48;7.70;71.70
61374;DHT22;47242;48.158;-1.586;2024-02-26T20:12:14;7.70;71.70
61374;DHT22;47242;48.158;-1.586;2024-02-26T20:14:41;7.70;71.50
61374;DHT22;47242;48.158;-1.586;2024-02-26T20:17:08;7.70;71.50
61374;DHT22;47242;48.158;-1.586;2024-02-26T20:19:34;7.70;71.10
61374;DHT22;47242;48.158;-1.586;2024-02-26T20:21:59;7.70;71.50
61374;DHT22;47242;48.158;-1.586;2024-02-26T20:24:25;7.70;71.80
61374;DHT22;47242;48.158;-1.586;2024-02-26T20:26:51;7.80;71.50
61374;DHT22;47242;48.158;-1.586;2024-02-26T20:29:17;7.80;72.00
61374;DHT22;47242;48.158;-1.586;2024-02-26T20:31:42;7.80;72.00
61374;DHT22;47242;48.158;-1.586;2024-02-26T20:34:08;7.80;71.80
61374;DHT22;47242;48.158;-1.586;2024-02-26T20:36:35;7.80;71.90
61374;DHT22;47242;48.158;-1.586;2024-02-26T20:39:01;7.80;71.90
61374;DHT22;47242;48.158;-1.586;2024-02-26T20:41:28;7.80;71.60
61374;DHT22;47242;48.158;-1.586;2024-02-26T20:43:54;7.80;71.80
61374;DHT22;47242;48.158;-1.586;2024-02-26T20:46:20;7.80;72.10
61374;DHT22;47242;48.158;-1.586;2024-02-26T20:48:48;7.80;71.80
61374;DHT22;47242;48.158;-1.586;2024-02-26T20:51:14;7.80;71.50
61374;DHT22;47242;48.158;-1.586;2024-02-26T20:53:40;7.80;72.10
61374;DHT22;47242;48.158;-1.586;2024-02-26T20:56:06;7.70;71.80
61374;DHT22;47242;48.158;-1.586;2024-02-26T20:58:32;7.70;72.10